Atkinson, Maine
Current Conditions -  °F | °C
As of 6:53 PM on Monday 22 Dec 2014 (Local Time) from KBGR Reporting Station
Overcast Overcast  
Wind Chill: 33°   Ceiling: 3200
Heat Index: 33°   Visibility: 10mi
Dew Point: 28°   Wind: 3mph
Humidity: 82%   Direction: NA
Pressure: 30.42"   Gusts: NA
Location:  45.2129°N, 69.1615°W
Report Text: KBGR 222353Z VRB03KT 10SM FEW014 OVC032 01/M02 A3042 RMK AO2 SLP305 4/002 T00061022 10017 20006 53003
Loading
Personal Weather Stations






























Interactive Weather Map New forecast layout! Learn more

10-Day Weather Forecast

Advertisements
Track Severe Weather on mobile